createdAt,value
2018-07-30T00:02:28.284Z,22.90
2018-07-30T00:04:55.863Z,22.90
2018-07-30T00:07:23.400Z,22.90
2018-07-30T00:09:51.023Z,22.90
2018-07-30T00:12:18.583Z,22.90
2018-07-30T00:14:46.093Z,22.80
2018-07-30T00:17:13.663Z,22.80
2018-07-30T00:19:41.216Z,22.80
2018-07-30T00:22:08.815Z,22.70
2018-07-30T00:24:36.398Z,22.70
2018-07-30T00:27:03.951Z,22.60
2018-07-30T00:29:31.490Z,22.60
2018-07-30T00:31:59.031Z,22.50
2018-07-30T00:34:26.596Z,22.50
2018-07-30T00:36:54.199Z,22.50
2018-07-30T00:39:21.786Z,22.40
2018-07-30T00:41:49.361Z,22.40
2018-07-30T00:44:16.872Z,22.40
2018-07-30T00:46:44.431Z,22.40
2018-07-30T00:49:12.018Z,22.40
2018-07-30T00:51:39.657Z,22.30
2018-07-30T00:54:07.300Z,22.30
2018-07-30T00:56:34.868Z,22.30
2018-07-30T00:59:02.438Z,22.30
2018-07-30T01:01:30.017Z,22.30
2018-07-30T01:03:57.648Z,22.20
2018-07-30T01:06:25.205Z,22.20
2018-07-30T01:08:52.734Z,22.10
2018-07-30T01:11:20.389Z,22.10
2018-07-30T01:13:47.946Z,22.10
2018-07-30T01:16:15.476Z,22.00
2018-07-30T01:18:43.105Z,22.00
2018-07-30T01:21:10.733Z,22.00
2018-07-30T01:23:39.235Z,22.00
2018-07-30T01:26:12.538Z,21.90
2018-07-30T01:28:43.774Z,21.90
2018-07-30T01:31:11.335Z,21.90
2018-07-30T01:33:38.894Z,21.80
2018-07-30T01:36:06.573Z,21.80
2018-07-30T01:38:34.104Z,21.70
2018-07-30T01:41:02.246Z,21.70
2018-07-30T01:43:32.204Z,21.70
2018-07-30T01:45:59.867Z,21.70
2018-07-30T01:48:27.444Z,21.70
2018-07-30T01:50:55.044Z,21.60
2018-07-30T01:53:22.585Z,21.60
2018-07-30T01:55:50.180Z,21.60
2018-07-30T01:58:18.515Z,21.50
2018-07-30T02:00:46.118Z,21.50
2018-07-30T02:03:13.768Z,21.40
2018-07-30T02:05:41.325Z,21.40
2018-07-30T02:08:08.927Z,21.40
2018-07-30T02:10:37.084Z,21.40
2018-07-30T02:13:04.735Z,21.30
2018-07-30T02:15:32.279Z,21.30
2018-07-30T02:17:59.852Z,21.30
2018-07-30T02:20:27.395Z,21.30
2018-07-30T02:22:54.923Z,21.30
2018-07-30T02:25:22.543Z,21.30
2018-07-30T02:27:50.087Z,21.30
2018-07-30T02:30:17.668Z,21.20
2018-07-30T02:32:45.815Z,21.20
2018-07-30T02:35:13.438Z,21.20
2018-07-30T02:37:41.062Z,21.20
2018-07-30T02:40:08.686Z,21.20
2018-07-30T02:42:37.185Z,21.20
2018-07-30T02:45:06.635Z,21.20
2018-07-30T02:47:34.172Z,21.10
2018-07-30T02:50:01.823Z,21.10
2018-07-30T02:52:29.611Z,21.00
2018-07-30T02:54:57.191Z,21.00
2018-07-30T02:57:24.720Z,21.00
2018-07-30T02:59:52.915Z,21.00
2018-07-30T03:02:21.445Z,20.90
2018-07-30T03:04:49.158Z,20.90
2018-07-30T03:07:16.779Z,20.90
2018-07-30T03:09:45.103Z,20.90
2018-07-30T03:12:12.705Z,20.90
2018-07-30T03:14:40.294Z,20.80
2018-07-30T03:17:07.849Z,20.80
2018-07-30T03:19:35.420Z,20.80
2018-07-30T03:22:03.076Z,20.80
2018-07-30T03:24:30.603Z,20.80
2018-07-30T03:26:58.187Z,20.80
2018-07-30T03:29:25.842Z,20.70
2018-07-30T03:31:53.429Z,20.80
2018-07-30T03:34:21.001Z,20.80
2018-07-30T03:36:48.567Z,20.80
2018-07-30T03:39:16.132Z,20.80
2018-07-30T03:41:43.665Z,20.80
2018-07-30T03:44:11.271Z,20.70
2018-07-30T03:46:38.885Z,20.70
2018-07-30T03:49:06.407Z,20.70
2018-07-30T03:51:33.997Z,20.70
2018-07-30T03:54:01.535Z,20.70
2018-07-30T03:56:29.048Z,20.70
2018-07-30T03:58:56.645Z,20.60
2018-07-30T04:01:24.164Z,20.60
2018-07-30T04:03:51.785Z,20.60
2018-07-30T04:06:19.465Z,20.60
2018-07-30T04:08:46.965Z,20.60
2018-07-30T04:11:14.576Z,20.60
2018-07-30T04:13:42.172Z,20.60
2018-07-30T04:16:09.821Z,20.60
2018-07-30T04:18:37.380Z,20.70
2018-07-30T04:23:32.429Z,20.70
2018-07-30T04:25:59.975Z,20.70
2018-07-30T04:28:27.528Z,20.70
2018-07-30T04:30:55.114Z,20.70
2018-07-30T04:33:22.659Z,20.70
2018-07-30T04:35:50.232Z,20.70
2018-07-30T04:38:17.785Z,20.70
2018-07-30T04:40:45.380Z,20.80
2018-07-30T04:43:13.003Z,20.80
2018-07-30T04:45:40.539Z,20.90
2018-07-30T04:48:08.082Z,20.90
2018-07-30T04:50:35.673Z,20.80
2018-07-30T04:53:03.324Z,20.80
2018-07-30T04:55:30.890Z,20.80
2018-07-30T04:57:58.439Z,20.90
2018-07-30T05:00:25.958Z,20.90
2018-07-30T05:02:53.495Z,20.90
2018-07-30T05:05:21.080Z,21.00
2018-07-30T05:07:48.656Z,20.90
2018-07-30T05:10:16.207Z,21.00
2018-07-30T05:12:43.850Z,21.00
2018-07-30T05:15:11.549Z,21.00
2018-07-30T05:17:39.127Z,21.10
2018-07-30T05:20:07.323Z,21.20
2018-07-30T05:22:34.905Z,21.20
2018-07-30T05:25:03.290Z,21.20
2018-07-30T05:27:30.873Z,21.20
2018-07-30T05:29:58.413Z,21.30
2018-07-30T05:32:25.952Z,21.30
2018-07-30T05:34:54.226Z,21.30
2018-07-30T05:37:22.503Z,21.40
2018-07-30T05:39:50.959Z,21.40
2018-07-30T05:42:18.747Z,21.50
2018-07-30T05:44:46.372Z,21.60
2018-07-30T05:47:13.988Z,21.60
2018-07-30T05:49:41.619Z,21.60
2018-07-30T05:52:10.009Z,21.60
2018-07-30T05:54:37.692Z,21.70
2018-07-30T05:57:05.713Z,21.80
2018-07-30T05:59:33.286Z,21.80
2018-07-30T06:02:00.789Z,21.80
2018-07-30T06:04:28.336Z,21.90
2018-07-30T06:06:55.948Z,22.00
2018-07-30T06:09:23.548Z,22.00
2018-07-30T06:11:51.191Z,22.10
2018-07-30T06:14:18.739Z,22.10
2018-07-30T06:16:46.343Z,22.20
2018-07-30T06:19:13.873Z,22.20
2018-07-30T06:21:41.425Z,22.30
2018-07-30T06:24:09.647Z,22.30
2018-07-30T06:26:37.219Z,22.40
2018-07-30T06:29:04.825Z,22.50
2018-07-30T06:31:32.395Z,22.50
2018-07-30T06:33:59.984Z,22.50
2018-07-30T06:36:27.587Z,22.60
2018-07-30T06:38:55.728Z,22.70
2018-07-30T06:41:23.321Z,22.70
2018-07-30T06:43:50.908Z,22.70
2018-07-30T06:46:18.480Z,22.80
2018-07-30T06:48:46.006Z,22.80
2018-07-30T06:51:13.597Z,22.90
2018-07-30T06:53:41.143Z,23.00
2018-07-30T06:56:08.734Z,23.10
2018-07-30T06:58:36.278Z,23.10
2018-07-30T07:01:03.859Z,23.20
2018-07-30T07:03:31.454Z,23.30
2018-07-30T07:05:59.063Z,23.40
2018-07-30T07:08:26.617Z,23.50
2018-07-30T07:10:54.259Z,23.60
2018-07-30T07:13:21.852Z,23.70
2018-07-30T07:15:49.378Z,23.80
2018-07-30T07:18:16.956Z,23.80
2018-07-30T07:20:44.596Z,24.00
2018-07-30T07:23:12.187Z,24.00
2018-07-30T07:25:39.778Z,24.10
2018-07-30T07:28:07.436Z,24.20
2018-07-30T07:33:02.432Z,24.40
2018-07-30T07:35:30.015Z,24.40
2018-07-30T07:37:57.543Z,24.50
2018-07-30T07:40:25.174Z,24.70
2018-07-30T07:42:52.718Z,24.80
2018-07-30T07:45:20.306Z,24.90
2018-07-30T07:47:47.927Z,25.00
2018-07-30T07:50:15.674Z,25.10
2018-07-30T07:52:43.158Z,25.10
2018-07-30T07:55:10.744Z,25.30
2018-07-30T07:57:39.271Z,25.50
2018-07-30T08:00:08.595Z,25.60
2018-07-30T08:02:36.166Z,25.60
2018-07-30T08:05:05.965Z,25.70
2018-07-30T08:07:33.969Z,25.80
2018-07-30T08:10:01.620Z,25.90
2018-07-30T08:12:29.321Z,26.00
2018-07-30T08:14:56.985Z,26.10
2018-07-30T08:17:24.708Z,26.20
2018-07-30T08:19:52.321Z,26.30
2018-07-30T08:22:19.999Z,26.40
2018-07-30T08:24:47.615Z,26.50
2018-07-30T08:27:15.206Z,26.60
2018-07-30T08:29:42.856Z,26.70
2018-07-30T08:32:10.338Z,26.80
2018-07-30T08:34:38.120Z,26.80
2018-07-30T08:37:05.712Z,26.90
2018-07-30T08:42:07.598Z,27.10
2018-07-30T08:44:35.139Z,27.20
2018-07-30T08:47:02.592Z,27.30
2018-07-30T08:49:30.152Z,27.30
2018-07-30T08:51:57.745Z,27.40
2018-07-30T08:54:25.314Z,27.40
2018-07-30T08:56:52.937Z,27.60
2018-07-30T08:59:20.458Z,27.70
2018-07-30T09:01:47.988Z,27.80
2018-07-30T09:04:15.548Z,28.00
2018-07-30T09:06:43.054Z,28.10
2018-07-30T09:09:10.948Z,28.10
2018-07-30T09:11:38.936Z,28.20
2018-07-30T09:14:06.855Z,28.30
2018-07-30T09:16:34.393Z,28.50
2018-07-30T09:19:01.851Z,28.50
2018-07-30T09:21:29.450Z,28.60
2018-07-30T09:23:57.040Z,28.60
2018-07-30T09:26:24.490Z,28.80
2018-07-30T09:28:52.011Z,28.90
2018-07-30T09:31:19.668Z,29.00
2018-07-30T09:33:47.157Z,29.10
2018-07-30T09:36:19.776Z,29.20
2018-07-30T09:38:47.466Z,29.30
2018-07-30T09:41:15.092Z,29.30
2018-07-30T09:43:42.670Z,29.40
2018-07-30T09:46:10.227Z,29.50
2018-07-30T09:48:37.705Z,29.60
2018-07-30T09:51:05.459Z,29.70
2018-07-30T09:53:33.040Z,29.90
2018-07-30T09:56:00.582Z,30.00
2018-07-30T09:58:28.857Z,30.10
2018-07-30T10:01:01.468Z,30.30
2018-07-30T10:03:29.536Z,30.30
2018-07-30T10:05:57.113Z,30.40
2018-07-30T10:08:24.686Z,30.60
2018-07-30T10:10:54.864Z,30.80
2018-07-30T10:13:22.400Z,30.90
2018-07-30T10:15:49.887Z,31.00
2018-07-30T10:18:17.488Z,31.10
2018-07-30T10:20:45.045Z,31.30
2018-07-30T10:23:12.664Z,31.40
2018-07-30T10:25:40.135Z,31.40
2018-07-30T10:28:07.741Z,31.50
2018-07-30T10:30:35.313Z,31.60
2018-07-30T10:33:02.875Z,31.70
2018-07-30T10:35:30.382Z,31.70
2018-07-30T10:37:58.032Z,31.80
2018-07-30T10:40:26.189Z,31.90
2018-07-30T10:42:53.808Z,32.00
2018-07-30T10:45:21.334Z,32.10
2018-07-30T10:47:48.923Z,32.10
2018-07-30T10:50:16.529Z,32.20
2018-07-30T10:52:44.031Z,32.40
2018-07-30T10:55:18.378Z,32.40
2018-07-30T10:57:45.965Z,32.50
2018-07-30T11:00:14.227Z,32.50
2018-07-30T11:02:41.752Z,32.50
2018-07-30T11:05:09.429Z,32.60
2018-07-30T11:07:37.084Z,32.70
2018-07-30T11:10:05.510Z,32.90
2018-07-30T11:12:33.193Z,33.10
2018-07-30T11:15:00.716Z,33.30
2018-07-30T11:17:28.416Z,33.70
2018-07-30T11:19:56.042Z,34.70
2018-07-30T11:22:24.272Z,36.90
2018-07-30T11:24:51.889Z,39.80
2018-07-30T11:27:19.480Z,42.50
2018-07-30T11:29:46.984Z,44.90
2018-07-30T11:32:14.538Z,47.00
2018-07-30T11:37:09.595Z,50.50
2018-07-30T11:39:37.726Z,51.90
2018-07-30T11:42:05.524Z,53.20
2018-07-30T11:44:33.085Z,54.20
2018-07-30T11:47:00.621Z,55.00
2018-07-30T11:49:28.138Z,55.70
2018-07-30T11:51:55.705Z,56.00
2018-07-30T11:54:23.471Z,56.40
2018-07-30T11:56:50.900Z,56.40
2018-07-30T11:59:18.503Z,56.40
2018-07-30T12:01:46.048Z,56.50
2018-07-30T12:04:13.642Z,56.70
2018-07-30T12:06:41.176Z,56.70
2018-07-30T12:09:08.778Z,56.40
2018-07-30T12:11:36.548Z,56.20
2018-07-30T12:14:04.060Z,56.00
2018-07-30T12:16:31.628Z,55.70
2018-07-30T12:18:59.146Z,55.40
2018-07-30T12:21:26.749Z,55.10
2018-07-30T12:23:54.342Z,54.70
2018-07-30T12:26:21.853Z,54.40
2018-07-30T12:28:49.492Z,54.10
2018-07-30T12:31:16.981Z,53.60
2018-07-30T12:33:44.506Z,52.70
2018-07-30T12:36:12.430Z,51.70
2018-07-30T12:38:39.976Z,51.40
2018-07-30T12:41:07.632Z,51.10
2018-07-30T12:43:35.151Z,50.90
2018-07-30T12:46:02.775Z,50.70
2018-07-30T12:48:30.346Z,50.50
2018-07-30T12:50:58.018Z,50.10
2018-07-30T12:53:25.584Z,49.80
2018-07-30T12:55:53.192Z,49.50
2018-07-30T12:58:20.730Z,49.00
2018-07-30T13:00:48.313Z,48.60
2018-07-30T13:03:15.963Z,48.50
2018-07-30T13:05:43.472Z,48.20
2018-07-30T13:08:11.774Z,47.90
2018-07-30T13:10:39.395Z,47.60
2018-07-30T13:13:06.947Z,47.40
2018-07-30T13:15:34.624Z,47.30
2018-07-30T13:18:02.203Z,47.30
2018-07-30T13:20:29.823Z,47.40
2018-07-30T13:22:57.420Z,47.40
2018-07-30T13:25:25.065Z,47.40
2018-07-30T13:27:52.678Z,47.30
2018-07-30T13:30:20.303Z,47.20
2018-07-30T13:32:48.013Z,47.20
2018-07-30T13:35:15.603Z,47.30
2018-07-30T13:37:43.225Z,46.90
2018-07-30T13:40:10.790Z,46.30
2018-07-30T13:42:38.426Z,45.90
2018-07-30T13:45:06.224Z,45.30
2018-07-30T13:47:33.779Z,44.90
2018-07-30T13:50:01.402Z,44.10
2018-07-30T13:52:28.981Z,43.40
2018-07-30T13:54:56.582Z,42.90
2018-07-30T13:57:24.234Z,42.50
2018-07-30T13:59:51.849Z,42.00
2018-07-30T14:02:19.438Z,41.60
2018-07-30T14:04:47.027Z,41.20
2018-07-30T14:07:14.616Z,40.80
2018-07-30T14:09:42.192Z,40.30
2018-07-30T14:12:09.752Z,40.00
2018-07-30T14:14:37.366Z,39.80
2018-07-30T14:17:05.085Z,39.60
2018-07-30T14:19:32.665Z,39.40
2018-07-30T14:22:00.195Z,39.30
2018-07-30T14:24:27.780Z,39.20
2018-07-30T14:26:55.365Z,39.10
2018-07-30T14:29:22.929Z,39.00
2018-07-30T14:31:50.685Z,38.80
2018-07-30T14:34:18.216Z,38.80
2018-07-30T14:36:45.828Z,38.50
2018-07-30T14:39:13.391Z,38.30
2018-07-30T14:41:40.988Z,38.20
2018-07-30T14:46:36.147Z,38.10
2018-07-30T14:49:03.831Z,38.00
2018-07-30T14:51:31.454Z,37.90
2018-07-30T14:53:59.134Z,37.80
2018-07-30T14:56:26.753Z,37.70
2018-07-30T14:58:54.411Z,37.60
2018-07-30T15:01:22.038Z,37.70
2018-07-30T15:03:49.646Z,37.60
2018-07-30T15:06:17.300Z,37.60
2018-07-30T15:08:44.918Z,37.40
2018-07-30T15:11:12.634Z,37.30
2018-07-30T15:13:40.231Z,37.10
2018-07-30T15:16:07.883Z,37.00
2018-07-30T15:18:35.463Z,37.00
2018-07-30T15:21:03.139Z,36.80
2018-07-30T15:23:30.760Z,36.90
2018-07-30T15:25:58.369Z,37.00
2018-07-30T15:28:25.948Z,37.50
2018-07-30T15:30:53.551Z,37.90
2018-07-30T15:33:21.112Z,37.90
2018-07-30T15:35:48.756Z,37.80
2018-07-30T15:38:16.300Z,37.70
2018-07-30T15:40:43.863Z,37.60
2018-07-30T15:43:11.427Z,37.50
2018-07-30T15:45:39.030Z,37.40
2018-07-30T15:48:07.003Z,37.20
2018-07-30T15:50:34.585Z,37.10
2018-07-30T15:53:02.206Z,37.00
2018-07-30T15:55:29.787Z,36.80
2018-07-30T15:57:57.354Z,36.70
2018-07-30T16:00:24.943Z,36.60
2018-07-30T16:02:52.590Z,36.50
2018-07-30T16:05:20.910Z,36.40
2018-07-30T16:07:48.549Z,36.20
2018-07-30T16:12:44.442Z,36.00
2018-07-30T16:15:12.066Z,35.90
2018-07-30T16:17:39.687Z,35.80
2018-07-30T16:20:07.939Z,35.80
2018-07-30T16:22:35.570Z,35.70
2018-07-30T16:25:03.337Z,35.70
2018-07-30T16:27:31.065Z,35.60
2018-07-30T16:29:59.888Z,35.50
2018-07-30T16:32:27.479Z,35.40
2018-07-30T16:34:55.115Z,35.30
2018-07-30T16:37:22.724Z,35.00
2018-07-30T16:42:17.870Z,34.80
2018-07-30T16:44:45.801Z,34.80
2018-07-30T16:47:13.506Z,34.70
2018-07-30T16:49:41.095Z,34.90
2018-07-30T16:52:08.764Z,34.90
2018-07-30T16:54:36.445Z,34.80
2018-07-30T16:57:04.058Z,34.70
2018-07-30T16:59:31.616Z,34.50
2018-07-30T17:01:59.219Z,34.40
2018-07-30T17:04:26.857Z,34.30
2018-07-30T17:06:54.491Z,34.20
2018-07-30T17:09:22.105Z,34.10
2018-07-30T17:11:49.742Z,33.90
2018-07-30T17:14:20.195Z,33.80
2018-07-30T17:16:47.775Z,33.70
2018-07-30T17:21:42.918Z,33.50
2018-07-30T17:24:10.517Z,33.40
2018-07-30T17:26:38.493Z,33.30
2018-07-30T17:29:06.165Z,33.20
2018-07-30T17:31:33.773Z,33.20
2018-07-30T17:34:01.487Z,33.10
2018-07-30T17:36:29.520Z,33.00
2018-07-30T17:38:57.237Z,33.00
2018-07-30T17:41:24.867Z,32.90
2018-07-30T17:43:53.419Z,32.80
2018-07-30T17:46:21.061Z,32.70
2018-07-30T17:48:48.658Z,32.60
2018-07-30T17:51:16.367Z,32.50
2018-07-30T17:53:45.407Z,32.40
2018-07-30T17:56:13.045Z,32.30
2018-07-30T17:58:40.756Z,32.20
2018-07-30T18:01:08.395Z,32.10
2018-07-30T18:03:36.055Z,32.00
2018-07-30T18:06:03.651Z,31.90
2018-07-30T18:08:31.273Z,31.80
2018-07-30T18:10:59.272Z,31.70
2018-07-30T18:13:26.849Z,31.70
2018-07-30T18:15:54.545Z,31.60
2018-07-30T18:18:23.270Z,31.50
2018-07-30T18:20:51.608Z,31.40
2018-07-30T18:23:19.891Z,31.30
2018-07-30T18:25:47.604Z,31.20
2018-07-30T18:28:15.247Z,31.10
2018-07-30T18:30:42.880Z,31.00
2018-07-30T18:33:10.570Z,30.80
2018-07-30T18:35:38.299Z,30.80
2018-07-30T18:38:06.001Z,30.60
2018-07-30T18:40:33.737Z,30.60
2018-07-30T18:43:01.474Z,30.40
2018-07-30T18:45:29.862Z,30.30
2018-07-30T18:47:57.443Z,30.20
2018-07-30T18:50:25.130Z,30.10
2018-07-30T18:52:52.798Z,30.00
2018-07-30T18:55:20.472Z,29.90
2018-07-30T18:57:48.266Z,29.80
2018-07-30T19:00:15.924Z,29.80
2018-07-30T19:02:43.567Z,29.70
2018-07-30T19:05:11.312Z,29.50
2018-07-30T19:07:38.960Z,29.50
2018-07-30T19:10:06.880Z,29.40
2018-07-30T19:12:34.515Z,29.30
2018-07-30T19:15:02.155Z,29.20
2018-07-30T19:17:29.868Z,29.10
2018-07-30T19:19:57.510Z,29.10
2018-07-30T19:22:25.139Z,29.00
2018-07-30T19:24:53.090Z,28.90
2018-07-30T19:27:20.825Z,28.80
2018-07-30T19:32:16.109Z,28.70
2018-07-30T19:34:43.755Z,28.60
2018-07-30T19:37:11.376Z,28.60
2018-07-30T19:39:38.973Z,28.50
2018-07-30T19:42:06.623Z,28.50
2018-07-30T19:44:34.346Z,28.40
2018-07-30T19:47:01.954Z,28.30
2018-07-30T19:49:29.619Z,28.20
2018-07-30T19:51:57.407Z,28.20
2018-07-30T19:54:25.122Z,28.10
2018-07-30T19:56:52.835Z,28.10
2018-07-30T19:59:20.504Z,28.00
2018-07-30T20:01:48.248Z,28.00
2018-07-30T20:04:15.923Z,27.90
2018-07-30T20:06:43.574Z,27.90
2018-07-30T20:09:12.103Z,27.80
2018-07-30T20:11:39.791Z,27.70
2018-07-30T20:14:07.450Z,27.70
2018-07-30T20:16:36.017Z,27.60
2018-07-30T20:19:04.503Z,27.60
2018-07-30T20:21:32.185Z,27.50
2018-07-30T20:23:59.922Z,27.50
2018-07-30T20:26:27.552Z,27.50
2018-07-30T20:28:55.184Z,27.40
2018-07-30T20:31:24.420Z,27.40
2018-07-30T20:33:55.015Z,27.30
2018-07-30T20:36:23.305Z,27.30
2018-07-30T20:38:51.339Z,27.20
2018-07-30T20:41:18.971Z,27.20
2018-07-30T20:43:46.662Z,27.10
2018-07-30T20:46:14.405Z,27.00
2018-07-30T20:48:42.111Z,27.00
2018-07-30T20:51:09.820Z,27.00
2018-07-30T20:53:37.982Z,26.90
2018-07-30T20:56:05.623Z,26.80
2018-07-30T20:58:33.384Z,26.80
2018-07-30T21:01:01.045Z,26.70
2018-07-30T21:03:30.476Z,26.70
2018-07-30T21:05:58.131Z,26.60
2018-07-30T21:08:25.754Z,26.60
2018-07-30T21:10:53.374Z,26.50
2018-07-30T21:13:21.054Z,26.50
2018-07-30T21:15:48.754Z,26.40
2018-07-30T21:18:16.396Z,26.30
2018-07-30T21:20:44.051Z,26.40
2018-07-30T21:23:11.714Z,26.30
2018-07-30T21:25:39.371Z,26.20
2018-07-30T21:28:07.054Z,26.20
2018-07-30T21:30:34.720Z,26.10
2018-07-30T21:33:02.368Z,26.10
2018-07-30T21:35:29.987Z,26.00
2018-07-30T21:37:57.659Z,26.00
2018-07-30T21:40:25.953Z,25.90
2018-07-30T21:42:53.637Z,25.90
2018-07-30T21:45:21.900Z,25.90
2018-07-30T21:47:49.476Z,25.90
2018-07-30T21:50:17.208Z,25.80
2018-07-30T21:52:44.787Z,25.80
2018-07-30T21:55:12.376Z,25.70
2018-07-30T21:57:39.952Z,25.70
2018-07-30T22:00:12.199Z,25.70
2018-07-30T22:02:39.835Z,25.70
2018-07-30T22:05:11.093Z,25.70
2018-07-30T22:07:38.743Z,25.60
2018-07-30T22:10:07.180Z,25.50
2018-07-30T22:12:34.777Z,25.50
2018-07-30T22:15:02.543Z,25.50
2018-07-30T22:17:30.133Z,25.40
2018-07-30T22:19:57.693Z,25.40
2018-07-30T22:22:25.268Z,25.40
2018-07-30T22:24:52.900Z,25.40
2018-07-30T22:27:21.465Z,25.30
2018-07-30T22:29:49.042Z,25.30
2018-07-30T22:32:16.676Z,25.20
2018-07-30T22:34:44.272Z,25.20
2018-07-30T22:37:11.899Z,25.10
2018-07-30T22:39:39.484Z,25.10
2018-07-30T22:42:07.110Z,25.10
2018-07-30T22:44:34.780Z,25.00
2018-07-30T22:47:02.371Z,25.00
2018-07-30T22:49:29.931Z,25.00
2018-07-30T22:51:58.175Z,24.90
2018-07-30T22:54:25.779Z,24.90
2018-07-30T22:56:53.344Z,24.90
2018-07-30T22:59:20.978Z,24.80
2018-07-30T23:01:48.607Z,24.80
2018-07-30T23:04:16.151Z,24.70
2018-07-30T23:09:11.303Z,24.70
2018-07-30T23:11:38.874Z,24.60
2018-07-30T23:14:06.415Z,24.60
2018-07-30T23:16:34.025Z,24.60
2018-07-30T23:19:01.625Z,24.50
2018-07-30T23:21:29.195Z,24.50
2018-07-30T23:23:56.799Z,24.50
2018-07-30T23:26:24.378Z,24.40
2018-07-30T23:28:52.009Z,24.40
2018-07-30T23:31:19.601Z,24.40
2018-07-30T23:33:47.184Z,24.40
2018-07-30T23:36:15.540Z,24.30
2018-07-30T23:41:11.462Z,24.20
2018-07-30T23:43:39.049Z,24.20
2018-07-30T23:46:06.684Z,24.20
2018-07-30T23:48:34.218Z,24.10
2018-07-30T23:51:01.763Z,24.10
2018-07-30T23:53:29.359Z,24.10
2018-07-30T23:55:56.928Z,24.10
2018-07-30T23:58:24.538Z,24.00
